sensor_id;sensor_type;location;lat;lon;timestamp;P1;durP1;ratioP1;P2;durP2;ratioP2
75152;SDS011;63734;45.218;36.708;2022-12-18T00:02:02;13.35;;;4.18;;
75152;SDS011;63734;45.218;36.708;2022-12-18T00:04:28;14.63;;;4.35;;
75152;SDS011;63734;45.218;36.708;2022-12-18T00:06:55;10.10;;;3.33;;
75152;SDS011;63734;45.218;36.708;2022-12-18T00:09:21;9.10;;;3.80;;
75152;SDS011;63734;45.218;36.708;2022-12-18T00:11:46;12.95;;;3.40;;
75152;SDS011;63734;45.218;36.708;2022-12-18T00:14:13;9.10;;;3.33;;
75152;SDS011;63734;45.218;36.708;2022-12-18T00:16:39;6.72;;;3.15;;
75152;SDS011;63734;45.218;36.708;2022-12-18T00:19:08;15.48;;;3.95;;
75152;SDS011;63734;45.218;36.708;2022-12-18T00:21:35;12.98;;;3.75;;
75152;SDS011;63734;45.218;36.708;2022-12-18T00:24:01;13.52;;;3.65;;
75152;SDS011;63734;45.218;36.708;2022-12-18T00:26:28;10.90;;;3.55;;
75152;SDS011;63734;45.218;36.708;2022-12-18T00:29:11;8.13;;;3.28;;
75152;SDS011;63734;45.218;36.708;2022-12-18T00:31:42;13.10;;;3.60;;
75152;SDS011;63734;45.218;36.708;2022-12-18T00:34:12;6.63;;;2.85;;
75152;SDS011;63734;45.218;36.708;2022-12-18T00:36:39;8.05;;;3.58;;
75152;SDS011;63734;45.218;36.708;2022-12-18T00:39:06;5.32;;;3.03;;
75152;SDS011;63734;45.218;36.708;2022-12-18T00:41:58;11.13;;;4.30;;
75152;SDS011;63734;45.218;36.708;2022-12-18T00:44:42;8.75;;;2.85;;
75152;SDS011;63734;45.218;36.708;2022-12-18T00:47:08;12.88;;;4.28;;
75152;SDS011;63734;45.218;36.708;2022-12-18T00:49:34;8.43;;;3.08;;
75152;SDS011;63734;45.218;36.708;2022-12-18T00:52:00;11.50;;;3.20;;
75152;SDS011;63734;45.218;36.708;2022-12-18T00:58:07;8.15;;;3.50;;
75152;SDS011;63734;45.218;36.708;2022-12-18T01:00:34;12.90;;;4.35;;
75152;SDS011;63734;45.218;36.708;2022-12-18T01:03:01;8.82;;;3.25;;
75152;SDS011;63734;45.218;36.708;2022-12-18T01:05:27;6.18;;;3.13;;
75152;SDS011;63734;45.218;36.708;2022-12-18T01:07:53;6.32;;;3.05;;
75152;SDS011;63734;45.218;36.708;2022-12-18T01:10:20;12.40;;;4.25;;
75152;SDS011;63734;45.218;36.708;2022-12-18T01:12:46;13.48;;;3.63;;
75152;SDS011;63734;45.218;36.708;2022-12-18T01:15:12;11.90;;;3.78;;
75152;SDS011;63734;45.218;36.708;2022-12-18T01:17:39;10.27;;;3.50;;
75152;SDS011;63734;45.218;36.708;2022-12-18T01:20:05;10.73;;;3.60;;
75152;SDS011;63734;45.218;36.708;2022-12-18T01:22:31;6.78;;;2.83;;
75152;SDS011;63734;45.218;36.708;2022-12-18T01:24:59;12.52;;;3.78;;
75152;SDS011;63734;45.218;36.708;2022-12-18T01:27:25;10.02;;;3.50;;
75152;SDS011;63734;45.218;36.708;2022-12-18T01:29:51;9.60;;;3.47;;
75152;SDS011;63734;45.218;36.708;2022-12-18T01:32:18;12.50;;;3.83;;
75152;SDS011;63734;45.218;36.708;2022-12-18T01:35:09;8.68;;;3.30;;
75152;SDS011;63734;45.218;36.708;2022-12-18T01:37:35;8.93;;;3.35;;
75152;SDS011;63734;45.218;36.708;2022-12-18T01:40:01;8.57;;;3.65;;
75152;SDS011;63734;45.218;36.708;2022-12-18T01:42:52;8.32;;;3.63;;
75152;SDS011;63734;45.218;36.708;2022-12-18T01:45:23;8.88;;;3.00;;
75152;SDS011;63734;45.218;36.708;2022-12-18T01:48:12;10.10;;;3.17;;
75152;SDS011;63734;45.218;36.708;2022-12-18T01:50:38;10.07;;;3.85;;
75152;SDS011;63734;45.218;36.708;2022-12-18T01:53:10;7.00;;;2.72;;
75152;SDS011;63734;45.218;36.708;2022-12-18T01:55:51;9.10;;;3.97;;
75152;SDS011;63734;45.218;36.708;2022-12-18T01:58:21;7.78;;;3.45;;
75152;SDS011;63734;45.218;36.708;2022-12-18T02:01:20;8.60;;;3.63;;
75152;SDS011;63734;45.218;36.708;2022-12-18T02:03:48;9.82;;;4.13;;
75152;SDS011;63734;45.218;36.708;2022-12-18T02:06:16;7.38;;;3.47;;
75152;SDS011;63734;45.218;36.708;2022-12-18T02:14:13;12.68;;;3.90;;
75152;SDS011;63734;45.218;36.708;2022-12-18T02:16:51;8.20;;;3.83;;
75152;SDS011;63734;45.218;36.708;2022-12-18T02:27:14;12.52;;;4.03;;
75152;SDS011;63734;45.218;36.708;2022-12-18T02:30:06;9.75;;;4.20;;
75152;SDS011;63734;45.218;36.708;2022-12-18T02:32:58;9.02;;;4.05;;
75152;SDS011;63734;45.218;36.708;2022-12-18T02:35:26;9.88;;;3.50;;
75152;SDS011;63734;45.218;36.708;2022-12-18T02:37:57;12.75;;;4.00;;
75152;SDS011;63734;45.218;36.708;2022-12-18T02:40:26;6.15;;;3.08;;
75152;SDS011;63734;45.218;36.708;2022-12-18T02:42:53;12.93;;;4.13;;
75152;SDS011;63734;45.218;36.708;2022-12-18T02:45:20;16.15;;;4.55;;
75152;SDS011;63734;45.218;36.708;2022-12-18T02:47:47;16.58;;;6.10;;
75152;SDS011;63734;45.218;36.708;2022-12-18T02:50:21;12.85;;;4.53;;
75152;SDS011;63734;45.218;36.708;2022-12-18T02:58:04;11.60;;;4.47;;
75152;SDS011;63734;45.218;36.708;2022-12-18T03:00:43;10.68;;;4.18;;
75152;SDS011;63734;45.218;36.708;2022-12-18T03:03:26;15.13;;;4.38;;
75152;SDS011;63734;45.218;36.708;2022-12-18T03:06:44;11.27;;;3.75;;
75152;SDS011;63734;45.218;36.708;2022-12-18T03:08:49;12.57;;;3.78;;
75152;SDS011;63734;45.218;36.708;2022-12-18T03:11:20;15.13;;;4.43;;
75152;SDS011;63734;45.218;36.708;2022-12-18T03:14:06;8.68;;;3.80;;
75152;SDS011;63734;45.218;36.708;2022-12-18T03:16:34;8.18;;;3.50;;
75152;SDS011;63734;45.218;36.708;2022-12-18T03:19:06;6.97;;;3.72;;
75152;SDS011;63734;45.218;36.708;2022-12-18T03:21:41;10.77;;;5.00;;
75152;SDS011;63734;45.218;36.708;2022-12-18T03:24:10;13.07;;;4.68;;
75152;SDS011;63734;45.218;36.708;2022-12-18T03:26:38;6.78;;;3.08;;
75152;SDS011;63734;45.218;36.708;2022-12-18T03:29:27;13.30;;;4.65;;
75152;SDS011;63734;45.218;36.708;2022-12-18T03:32:15;11.98;;;3.97;;
75152;SDS011;63734;45.218;36.708;2022-12-18T03:34:51;15.57;;;4.13;;
75152;SDS011;63734;45.218;36.708;2022-12-18T03:37:22;11.75;;;3.88;;
75152;SDS011;63734;45.218;36.708;2022-12-18T03:39:48;15.13;;;4.40;;
75152;SDS011;63734;45.218;36.708;2022-12-18T03:44:59;15.30;;;6.03;;
75152;SDS011;63734;45.218;36.708;2022-12-18T03:50:21;18.65;;;5.43;;
75152;SDS011;63734;45.218;36.708;2022-12-18T03:53:04;14.05;;;5.43;;
75152;SDS011;63734;45.218;36.708;2022-12-18T03:55:34;14.48;;;4.97;;
75152;SDS011;63734;45.218;36.708;2022-12-18T03:58:04;14.30;;;5.30;;
75152;SDS011;63734;45.218;36.708;2022-12-18T04:00:45;15.43;;;5.57;;
75152;SDS011;63734;45.218;36.708;2022-12-18T04:03:15;15.00;;;5.32;;
75152;SDS011;63734;45.218;36.708;2022-12-18T04:05:46;15.02;;;4.57;;
75152;SDS011;63734;45.218;36.708;2022-12-18T04:08:18;15.02;;;4.90;;
75152;SDS011;63734;45.218;36.708;2022-12-18T04:10:52;12.43;;;5.65;;
75152;SDS011;63734;45.218;36.708;2022-12-18T04:13:29;20.60;;;5.82;;
75152;SDS011;63734;45.218;36.708;2022-12-18T04:16:06;14.48;;;6.25;;
75152;SDS011;63734;45.218;36.708;2022-12-18T04:18:33;15.80;;;5.43;;
75152;SDS011;63734;45.218;36.708;2022-12-18T04:21:00;19.27;;;5.95;;
75152;SDS011;63734;45.218;36.708;2022-12-18T04:23:26;16.02;;;5.72;;
75152;SDS011;63734;45.218;36.708;2022-12-18T04:25:56;14.50;;;5.45;;
75152;SDS011;63734;45.218;36.708;2022-12-18T04:28:37;20.05;;;7.50;;
75152;SDS011;63734;45.218;36.708;2022-12-18T04:31:29;19.10;;;7.05;;
75152;SDS011;63734;45.218;36.708;2022-12-18T04:34:20;18.75;;;7.10;;
75152;SDS011;63734;45.218;36.708;2022-12-18T04:36:49;19.20;;;7.05;;
75152;SDS011;63734;45.218;36.708;2022-12-18T04:39:16;19.10;;;7.10;;
75152;SDS011;63734;45.218;36.708;2022-12-18T04:41:44;17.15;;;7.60;;
75152;SDS011;63734;45.218;36.708;2022-12-18T04:44:11;15.00;;;6.97;;
75152;SDS011;63734;45.218;36.708;2022-12-18T04:46:37;19.00;;;7.15;;
75152;SDS011;63734;45.218;36.708;2022-12-18T04:49:03;15.98;;;7.07;;
75152;SDS011;63734;45.218;36.708;2022-12-18T04:51:29;15.98;;;7.60;;
75152;SDS011;63734;45.218;36.708;2022-12-18T04:53:55;25.25;;;7.97;;
75152;SDS011;63734;45.218;36.708;2022-12-18T04:56:21;20.33;;;7.38;;
75152;SDS011;63734;45.218;36.708;2022-12-18T04:58:47;19.83;;;8.18;;
75152;SDS011;63734;45.218;36.708;2022-12-18T05:01:16;21.70;;;7.28;;
75152;SDS011;63734;45.218;36.708;2022-12-18T05:04:08;19.95;;;7.43;;
75152;SDS011;63734;45.218;36.708;2022-12-18T05:06:34;18.90;;;7.75;;
75152;SDS011;63734;45.218;36.708;2022-12-18T05:09:00;17.02;;;7.53;;
75152;SDS011;63734;45.218;36.708;2022-12-18T05:11:25;18.17;;;7.60;;
75152;SDS011;63734;45.218;36.708;2022-12-18T05:13:51;20.20;;;8.23;;
75152;SDS011;63734;45.218;36.708;2022-12-18T05:16:17;19.88;;;7.85;;
75152;SDS011;63734;45.218;36.708;2022-12-18T05:18:43;20.92;;;8.90;;
75152;SDS011;63734;45.218;36.708;2022-12-18T05:21:09;22.73;;;8.93;;
75152;SDS011;63734;45.218;36.708;2022-12-18T05:23:35;22.08;;;8.50;;
75152;SDS011;63734;45.218;36.708;2022-12-18T05:26:03;18.83;;;8.32;;
75152;SDS011;63734;45.218;36.708;2022-12-18T05:28:31;22.23;;;8.98;;
75152;SDS011;63734;45.218;36.708;2022-12-18T05:30:59;28.77;;;9.70;;
75152;SDS011;63734;45.218;36.708;2022-12-18T05:33:29;27.08;;;10.20;;
75152;SDS011;63734;45.218;36.708;2022-12-18T05:35:58;23.52;;;9.50;;
75152;SDS011;63734;45.218;36.708;2022-12-18T05:38:26;17.60;;;9.07;;
75152;SDS011;63734;45.218;36.708;2022-12-18T05:40:53;17.75;;;9.02;;
75152;SDS011;63734;45.218;36.708;2022-12-18T05:43:19;21.65;;;9.50;;
75152;SDS011;63734;45.218;36.708;2022-12-18T05:45:49;21.20;;;9.93;;
75152;SDS011;63734;45.218;36.708;2022-12-18T05:48:16;25.85;;;8.73;;
75152;SDS011;63734;45.218;36.708;2022-12-18T05:50:43;20.00;;;9.80;;
75152;SDS011;63734;45.218;36.708;2022-12-18T05:53:11;22.50;;;9.25;;
75152;SDS011;63734;45.218;36.708;2022-12-18T05:55:38;16.55;;;8.30;;
75152;SDS011;63734;45.218;36.708;2022-12-18T05:58:07;24.75;;;10.02;;
75152;SDS011;63734;45.218;36.708;2022-12-18T06:00:34;23.60;;;9.10;;
75152;SDS011;63734;45.218;36.708;2022-12-18T06:03:05;25.20;;;9.75;;
75152;SDS011;63734;45.218;36.708;2022-12-18T06:05:35;22.60;;;10.23;;
75152;SDS011;63734;45.218;36.708;2022-12-18T06:08:02;20.08;;;8.75;;
75152;SDS011;63734;45.218;36.708;2022-12-18T06:10:53;19.73;;;8.75;;
75152;SDS011;63734;45.218;36.708;2022-12-18T06:13:19;22.88;;;8.70;;
75152;SDS011;63734;45.218;36.708;2022-12-18T06:15:46;22.98;;;9.40;;
75152;SDS011;63734;45.218;36.708;2022-12-18T06:18:12;18.98;;;9.32;;
75152;SDS011;63734;45.218;36.708;2022-12-18T06:20:38;20.98;;;8.95;;
75152;SDS011;63734;45.218;36.708;2022-12-18T06:23:06;27.35;;;8.93;;
75152;SDS011;63734;45.218;36.708;2022-12-18T06:25:32;18.77;;;8.40;;
75152;SDS011;63734;45.218;36.708;2022-12-18T06:27:58;19.13;;;8.52;;
75152;SDS011;63734;45.218;36.708;2022-12-18T06:30:50;18.13;;;8.70;;
75152;SDS011;63734;45.218;36.708;2022-12-18T06:33:16;23.65;;;10.18;;
75152;SDS011;63734;45.218;36.708;2022-12-18T06:35:42;27.55;;;11.05;;
75152;SDS011;63734;45.218;36.708;2022-12-18T06:38:08;26.13;;;11.85;;
75152;SDS011;63734;45.218;36.708;2022-12-18T06:40:38;23.50;;;10.93;;
75152;SDS011;63734;45.218;36.708;2022-12-18T06:43:05;28.38;;;11.75;;
75152;SDS011;63734;45.218;36.708;2022-12-18T06:45:31;31.45;;;11.38;;
75152;SDS011;63734;45.218;36.708;2022-12-18T06:47:57;23.77;;;9.90;;
75152;SDS011;63734;45.218;36.708;2022-12-18T06:50:23;25.83;;;10.65;;
75152;SDS011;63734;45.218;36.708;2022-12-18T06:52:49;38.30;;;11.88;;
75152;SDS011;63734;45.218;36.708;2022-12-18T06:55:15;40.28;;;11.88;;
75152;SDS011;63734;45.218;36.708;2022-12-18T06:57:41;33.50;;;10.23;;
75152;SDS011;63734;45.218;36.708;2022-12-18T07:00:07;24.55;;;10.35;;
75152;SDS011;63734;45.218;36.708;2022-12-18T07:02:33;34.70;;;11.95;;
75152;SDS011;63734;45.218;36.708;2022-12-18T07:05:00;30.02;;;12.38;;
75152;SDS011;63734;45.218;36.708;2022-12-18T07:07:26;30.80;;;12.80;;
75152;SDS011;63734;45.218;36.708;2022-12-18T07:09:52;29.05;;;12.65;;
75152;SDS011;63734;45.218;36.708;2022-12-18T07:12:44;27.85;;;12.10;;
75152;SDS011;63734;45.218;36.708;2022-12-18T07:15:10;22.25;;;10.93;;
75152;SDS011;63734;45.218;36.708;2022-12-18T07:17:35;22.83;;;11.50;;
75152;SDS011;63734;45.218;36.708;2022-12-18T07:20:02;16.00;;;8.63;;
75152;SDS011;63734;45.218;36.708;2022-12-18T07:22:28;22.58;;;10.27;;
75152;SDS011;63734;45.218;36.708;2022-12-18T07:24:54;21.63;;;8.63;;
75152;SDS011;63734;45.218;36.708;2022-12-18T07:27:20;25.77;;;11.02;;
75152;SDS011;63734;45.218;36.708;2022-12-18T07:30:12;23.83;;;10.55;;
75152;SDS011;63734;45.218;36.708;2022-12-18T07:32:38;20.30;;;9.43;;
75152;SDS011;63734;45.218;36.708;2022-12-18T07:35:04;17.48;;;8.40;;
75152;SDS011;63734;45.218;36.708;2022-12-18T07:37:30;16.77;;;7.15;;
75152;SDS011;63734;45.218;36.708;2022-12-18T07:39:56;14.63;;;6.88;;
75152;SDS011;63734;45.218;36.708;2022-12-18T07:42:22;23.70;;;9.43;;
75152;SDS011;63734;45.218;36.708;2022-12-18T07:45:00;23.80;;;9.02;;
75152;SDS011;63734;45.218;36.708;2022-12-18T07:47:27;21.23;;;10.52;;
75152;SDS011;63734;45.218;36.708;2022-12-18T07:49:54;22.98;;;10.90;;
75152;SDS011;63734;45.218;36.708;2022-12-18T07:52:20;24.70;;;11.63;;
75152;SDS011;63734;45.218;36.708;2022-12-18T07:54:46;19.95;;;10.43;;
75152;SDS011;63734;45.218;36.708;2022-12-18T07:57:16;20.45;;;10.57;;
75152;SDS011;63734;45.218;36.708;2022-12-18T07:59:43;14.43;;;8.70;;
75152;SDS011;63734;45.218;36.708;2022-12-18T08:02:09;16.00;;;8.00;;
75152;SDS011;63734;45.218;36.708;2022-12-18T08:04:35;17.40;;;9.07;;
75152;SDS011;63734;45.218;36.708;2022-12-18T08:07:01;17.30;;;9.55;;
75152;SDS011;63734;45.218;36.708;2022-12-18T08:09:27;13.90;;;7.40;;
75152;SDS011;63734;45.218;36.708;2022-12-18T08:12:17;14.60;;;8.18;;
75152;SDS011;63734;45.218;36.708;2022-12-18T08:14:43;17.88;;;9.52;;
75152;SDS011;63734;45.218;36.708;2022-12-18T08:17:09;22.67;;;9.68;;
75152;SDS011;63734;45.218;36.708;2022-12-18T08:19:35;20.38;;;9.35;;
75152;SDS011;63734;45.218;36.708;2022-12-18T08:22:01;19.80;;;9.85;;
75152;SDS011;63734;45.218;36.708;2022-12-18T08:24:27;16.98;;;8.88;;
75152;SDS011;63734;45.218;36.708;2022-12-18T08:26:53;16.80;;;8.32;;
75152;SDS011;63734;45.218;36.708;2022-12-18T08:29:43;18.38;;;8.50;;
75152;SDS011;63734;45.218;36.708;2022-12-18T08:32:09;15.45;;;6.88;;
75152;SDS011;63734;45.218;36.708;2022-12-18T08:34:35;14.50;;;8.15;;
75152;SDS011;63734;45.218;36.708;2022-12-18T08:37:01;15.20;;;8.00;;
75152;SDS011;63734;45.218;36.708;2022-12-18T08:39:27;14.50;;;7.85;;
75152;SDS011;63734;45.218;36.708;2022-12-18T08:41:53;17.02;;;8.88;;
75152;SDS011;63734;45.218;36.708;2022-12-18T08:44:37;16.05;;;8.27;;
75152;SDS011;63734;45.218;36.708;2022-12-18T08:47:04;18.27;;;7.63;;
75152;SDS011;63734;45.218;36.708;2022-12-18T08:49:31;20.17;;;9.55;;
75152;SDS011;63734;45.218;36.708;2022-12-18T08:51:58;24.08;;;10.70;;
75152;SDS011;63734;45.218;36.708;2022-12-18T08:54:25;20.80;;;8.13;;
75152;SDS011;63734;45.218;36.708;2022-12-18T08:56:51;21.40;;;9.00;;
75152;SDS011;63734;45.218;36.708;2022-12-18T08:59:18;28.95;;;10.05;;
75152;SDS011;63734;45.218;36.708;2022-12-18T09:02:11;24.67;;;9.73;;
75152;SDS011;63734;45.218;36.708;2022-12-18T09:04:37;23.83;;;7.65;;
75152;SDS011;63734;45.218;36.708;2022-12-18T09:07:05;19.88;;;9.15;;
75152;SDS011;63734;45.218;36.708;2022-12-18T09:09:31;25.42;;;10.32;;
75152;SDS011;63734;45.218;36.708;2022-12-18T09:11:56;20.48;;;8.77;;
75152;SDS011;63734;45.218;36.708;2022-12-18T09:14:22;18.02;;;8.68;;
75152;SDS011;63734;45.218;36.708;2022-12-18T09:16:48;17.95;;;8.20;;
75152;SDS011;63734;45.218;36.708;2022-12-18T09:19:14;15.70;;;8.45;;
75152;SDS011;63734;45.218;36.708;2022-12-18T09:21:40;24.25;;;8.32;;
75152;SDS011;63734;45.218;36.708;2022-12-18T09:24:08;13.20;;;6.18;;
75152;SDS011;63734;45.218;36.708;2022-12-18T09:26:37;21.20;;;7.30;;
75152;SDS011;63734;45.218;36.708;2022-12-18T09:29:03;20.02;;;6.97;;
75152;SDS011;63734;45.218;36.708;2022-12-18T09:31:30;18.27;;;8.27;;
75152;SDS011;63734;45.218;36.708;2022-12-18T09:33:56;13.23;;;8.00;;
75152;SDS011;63734;45.218;36.708;2022-12-18T09:36:22;12.85;;;6.50;;
75152;SDS011;63734;45.218;36.708;2022-12-18T09:38:48;15.82;;;6.95;;
75152;SDS011;63734;45.218;36.708;2022-12-18T09:41:32;18.30;;;7.30;;
75152;SDS011;63734;45.218;36.708;2022-12-18T09:46:37;13.48;;;6.00;;
75152;SDS011;63734;45.218;36.708;2022-12-18T09:49:10;16.40;;;6.33;;
75152;SDS011;63734;45.218;36.708;2022-12-18T09:51:42;9.38;;;4.90;;
75152;SDS011;63734;45.218;36.708;2022-12-18T09:54:14;10.00;;;4.78;;
75152;SDS011;63734;45.218;36.708;2022-12-18T09:56:45;17.85;;;8.13;;
75152;SDS011;63734;45.218;36.708;2022-12-18T09:59:20;13.00;;;5.50;;
75152;SDS011;63734;45.218;36.708;2022-12-18T10:01:49;19.05;;;6.72;;
75152;SDS011;63734;45.218;36.708;2022-12-18T10:04:41;18.17;;;6.05;;
75152;SDS011;63734;45.218;36.708;2022-12-18T10:07:43;18.55;;;7.25;;
75152;SDS011;63734;45.218;36.708;2022-12-18T10:10:07;17.02;;;6.55;;
75152;SDS011;63734;45.218;36.708;2022-12-18T10:15:31;14.40;;;4.82;;
75152;SDS011;63734;45.218;36.708;2022-12-18T10:20:43;15.13;;;6.32;;
75152;SDS011;63734;45.218;36.708;2022-12-18T10:26:18;14.55;;;7.72;;
75152;SDS011;63734;45.218;36.708;2022-12-18T10:28:44;15.43;;;7.03;;
75152;SDS011;63734;45.218;36.708;2022-12-18T10:31:18;11.40;;;5.85;;
75152;SDS011;63734;45.218;36.708;2022-12-18T10:33:47;9.57;;;4.93;;
75152;SDS011;63734;45.218;36.708;2022-12-18T10:36:13;10.55;;;4.68;;
75152;SDS011;63734;45.218;36.708;2022-12-18T10:38:41;9.98;;;4.43;;
75152;SDS011;63734;45.218;36.708;2022-12-18T10:46:46;9.15;;;3.70;;
75152;SDS011;63734;45.218;36.708;2022-12-18T10:49:25;6.57;;;4.20;;
75152;SDS011;63734;45.218;36.708;2022-12-18T10:59:57;10.10;;;5.50;;
75152;SDS011;63734;45.218;36.708;2022-12-18T11:02:28;6.00;;;3.75;;
75152;SDS011;63734;45.218;36.708;2022-12-18T11:04:59;7.95;;;4.85;;
75152;SDS011;63734;45.218;36.708;2022-12-18T11:07:26;7.30;;;4.90;;
75152;SDS011;63734;45.218;36.708;2022-12-18T11:10:17;6.07;;;3.65;;
75152;SDS011;63734;45.218;36.708;2022-12-18T11:12:45;8.80;;;4.43;;
75152;SDS011;63734;45.218;36.708;2022-12-18T11:15:16;7.88;;;3.58;;
75152;SDS011;63734;45.218;36.708;2022-12-18T11:17:49;9.05;;;3.90;;
75152;SDS011;63734;45.218;36.708;2022-12-18T11:20:31;5.07;;;3.53;;
75152;SDS011;63734;45.218;36.708;2022-12-18T11:23:00;7.85;;;4.03;;
75152;SDS011;63734;45.218;36.708;2022-12-18T11:25:29;6.18;;;3.92;;
75152;SDS011;63734;45.218;36.708;2022-12-18T11:28:23;5.28;;;3.38;;
75152;SDS011;63734;45.218;36.708;2022-12-18T11:31:18;6.43;;;4.35;;
75152;SDS011;63734;45.218;36.708;2022-12-18T11:33:57;6.53;;;3.97;;
75152;SDS011;63734;45.218;36.708;2022-12-18T11:36:50;7.43;;;3.83;;
75152;SDS011;63734;45.218;36.708;2022-12-18T11:41:46;4.22;;;3.40;;
75152;SDS011;63734;45.218;36.708;2022-12-18T11:47:24;4.10;;;3.28;;
75152;SDS011;63734;45.218;36.708;2022-12-18T11:50:18;6.25;;;4.00;;
75152;SDS011;63734;45.218;36.708;2022-12-18T11:52:47;6.32;;;4.30;;
75152;SDS011;63734;45.218;36.708;2022-12-18T11:55:14;5.45;;;3.97;;
75152;SDS011;63734;45.218;36.708;2022-12-18T11:58:08;4.47;;;3.30;;
75152;SDS011;63734;45.218;36.708;2022-12-18T12:00:43;5.20;;;3.47;;
75152;SDS011;63734;45.218;36.708;2022-12-18T12:03:22;4.50;;;3.60;;
75152;SDS011;63734;45.218;36.708;2022-12-18T12:06:15;4.30;;;3.22;;
75152;SDS011;63734;45.218;36.708;2022-12-18T12:09:11;5.00;;;3.60;;
75152;SDS011;63734;45.218;36.708;2022-12-18T12:14:37;6.03;;;4.38;;
75152;SDS011;63734;45.218;36.708;2022-12-18T12:20:20;5.50;;;3.90;;
75152;SDS011;63734;45.218;36.708;2022-12-18T12:23:01;6.80;;;4.30;;
75152;SDS011;63734;45.218;36.708;2022-12-18T12:32:03;5.82;;;4.07;;
75152;SDS011;63734;45.218;36.708;2022-12-18T12:36:49;6.15;;;3.90;;
75152;SDS011;63734;45.218;36.708;2022-12-18T12:39:29;4.40;;;3.13;;
75152;SDS011;63734;45.218;36.708;2022-12-18T12:41:59;5.95;;;3.20;;
75152;SDS011;63734;45.218;36.708;2022-12-18T12:44:48;2.63;;;2.42;;
75152;SDS011;63734;45.218;36.708;2022-12-18T12:47:21;5.18;;;3.55;;
75152;SDS011;63734;45.218;36.708;2022-12-18T12:49:52;3.75;;;2.60;;
75152;SDS011;63734;45.218;36.708;2022-12-18T12:52:28;8.40;;;3.45;;
75152;SDS011;63734;45.218;36.708;2022-12-18T12:54:59;3.72;;;2.78;;
75152;SDS011;63734;45.218;36.708;2022-12-18T12:57:30;5.07;;;3.47;;
75152;SDS011;63734;45.218;36.708;2022-12-18T13:00:13;3.65;;;3.22;;
75152;SDS011;63734;45.218;36.708;2022-12-18T13:08:00;5.93;;;4.05;;
75152;SDS011;63734;45.218;36.708;2022-12-18T13:10:39;7.22;;;4.13;;
75152;SDS011;63734;45.218;36.708;2022-12-18T13:15:37;6.72;;;4.13;;
75152;SDS011;63734;45.218;36.708;2022-12-18T13:18:15;5.88;;;3.05;;
75152;SDS011;63734;45.218;36.708;2022-12-18T13:20:43;3.97;;;2.67;;
75152;SDS011;63734;45.218;36.708;2022-12-18T13:25:56;8.98;;;4.22;;
75152;SDS011;63734;45.218;36.708;2022-12-18T13:31:12;8.75;;;4.57;;
75152;SDS011;63734;45.218;36.708;2022-12-18T13:34:14;7.25;;;4.10;;
75152;SDS011;63734;45.218;36.708;2022-12-18T13:36:45;4.70;;;3.60;;
75152;SDS011;63734;45.218;36.708;2022-12-18T13:41:45;4.97;;;2.70;;
75152;SDS011;63734;45.218;36.708;2022-12-18T13:44:13;3.15;;;2.50;;
75152;SDS011;63734;45.218;36.708;2022-12-18T13:46:58;6.85;;;3.38;;
75152;SDS011;63734;45.218;36.708;2022-12-18T13:49:29;6.97;;;3.90;;
75152;SDS011;63734;45.218;36.708;2022-12-18T13:52:28;2.90;;;2.03;;
75152;SDS011;63734;45.218;36.708;2022-12-18T13:54:59;3.47;;;2.40;;
75152;SDS011;63734;45.218;36.708;2022-12-18T13:57:31;6.68;;;2.67;;
75152;SDS011;63734;45.218;36.708;2022-12-18T14:02:48;3.85;;;2.40;;
75152;SDS011;63734;45.218;36.708;2022-12-18T14:05:22;6.38;;;3.30;;
75152;SDS011;63734;45.218;36.708;2022-12-18T14:10:15;2.05;;;1.48;;
75152;SDS011;63734;45.218;36.708;2022-12-18T14:12:44;3.95;;;3.13;;
75152;SDS011;63734;45.218;36.708;2022-12-18T14:17:56;1.98;;;1.77;;
75152;SDS011;63734;45.218;36.708;2022-12-18T14:20:26;3.45;;;2.33;;
75152;SDS011;63734;45.218;36.708;2022-12-18T14:22:53;3.65;;;2.13;;
75152;SDS011;63734;45.218;36.708;2022-12-18T14:25:29;2.67;;;2.10;;
75152;SDS011;63734;45.218;36.708;2022-12-18T14:28:29;2.03;;;1.65;;
75152;SDS011;63734;45.218;36.708;2022-12-18T14:30:49;2.33;;;1.77;;
75152;SDS011;63734;45.218;36.708;2022-12-18T14:33:25;2.47;;;1.90;;
75152;SDS011;63734;45.218;36.708;2022-12-18T14:36:02;2.15;;;1.95;;
75152;SDS011;63734;45.218;36.708;2022-12-18T14:38:32;2.53;;;1.70;;
75152;SDS011;63734;45.218;36.708;2022-12-18T14:41:01;3.60;;;2.33;;
75152;SDS011;63734;45.218;36.708;2022-12-18T14:43:33;1.98;;;1.73;;
75152;SDS011;63734;45.218;36.708;2022-12-18T14:46:02;2.42;;;1.83;;
75152;SDS011;63734;45.218;36.708;2022-12-18T14:53:47;2.33;;;1.92;;
75152;SDS011;63734;45.218;36.708;2022-12-18T14:56:22;3.65;;;2.33;;
75152;SDS011;63734;45.218;36.708;2022-12-18T14:59:00;2.38;;;1.83;;
75152;SDS011;63734;45.218;36.708;2022-12-18T15:03:59;3.35;;;2.08;;
75152;SDS011;63734;45.218;36.708;2022-12-18T15:06:30;3.17;;;2.13;;
75152;SDS011;63734;45.218;36.708;2022-12-18T15:08:59;2.00;;;1.33;;
75152;SDS011;63734;45.218;36.708;2022-12-18T15:11:31;2.88;;;1.58;;
75152;SDS011;63734;45.218;36.708;2022-12-18T15:14:21;3.78;;;2.63;;
75152;SDS011;63734;45.218;36.708;2022-12-18T15:16:51;2.53;;;2.08;;
75152;SDS011;63734;45.218;36.708;2022-12-18T15:19:20;2.58;;;2.00;;
75152;SDS011;63734;45.218;36.708;2022-12-18T15:21:48;2.72;;;2.17;;
75152;SDS011;63734;45.218;36.708;2022-12-18T15:24:20;3.50;;;2.53;;
75152;SDS011;63734;45.218;36.708;2022-12-18T15:26:55;1.98;;;1.52;;
75152;SDS011;63734;45.218;36.708;2022-12-18T15:29:21;3.40;;;2.50;;
75152;SDS011;63734;45.218;36.708;2022-12-18T15:31:58;4.82;;;2.13;;
75152;SDS011;63734;45.218;36.708;2022-12-18T15:34:29;3.25;;;2.20;;
75152;SDS011;63734;45.218;36.708;2022-12-18T15:36:55;3.03;;;2.17;;
75152;SDS011;63734;45.218;36.708;2022-12-18T15:39:21;3.45;;;2.35;;
75152;SDS011;63734;45.218;36.708;2022-12-18T15:41:48;4.10;;;3.25;;
75152;SDS011;63734;45.218;36.708;2022-12-18T15:44:33;4.60;;;1.92;;
75152;SDS011;63734;45.218;36.708;2022-12-18T15:47:01;4.00;;;2.67;;
75152;SDS011;63734;45.218;36.708;2022-12-18T15:49:29;3.38;;;2.28;;
75152;SDS011;63734;45.218;36.708;2022-12-18T15:51:59;3.85;;;3.00;;
75152;SDS011;63734;45.218;36.708;2022-12-18T15:54:27;4.32;;;2.88;;
75152;SDS011;63734;45.218;36.708;2022-12-18T15:57:12;8.13;;;3.28;;
75152;SDS011;63734;45.218;36.708;2022-12-18T15:59:52;6.35;;;3.30;;
75152;SDS011;63734;45.218;36.708;2022-12-18T16:02:23;5.63;;;2.97;;
75152;SDS011;63734;45.218;36.708;2022-12-18T16:04:51;5.72;;;3.28;;
75152;SDS011;63734;45.218;36.708;2022-12-18T16:07:19;4.28;;;2.70;;
75152;SDS011;63734;45.218;36.708;2022-12-18T16:09:46;4.95;;;3.95;;
75152;SDS011;63734;45.218;36.708;2022-12-18T16:12:15;7.43;;;3.47;;
75152;SDS011;63734;45.218;36.708;2022-12-18T16:14:48;5.00;;;2.65;;
75152;SDS011;63734;45.218;36.708;2022-12-18T16:17:17;5.78;;;3.40;;
75152;SDS011;63734;45.218;36.708;2022-12-18T16:19:44;3.92;;;2.47;;
75152;SDS011;63734;45.218;36.708;2022-12-18T16:22:17;6.35;;;3.40;;
75152;SDS011;63734;45.218;36.708;2022-12-18T16:24:48;7.68;;;3.63;;
75152;SDS011;63734;45.218;36.708;2022-12-18T16:27:15;7.30;;;4.28;;
75152;SDS011;63734;45.218;36.708;2022-12-18T16:29:41;4.95;;;2.85;;
75152;SDS011;63734;45.218;36.708;2022-12-18T16:32:08;8.27;;;4.55;;
75152;SDS011;63734;45.218;36.708;2022-12-18T16:34:39;8.02;;;5.45;;
75152;SDS011;63734;45.218;36.708;2022-12-18T16:37:06;6.93;;;3.40;;